Terminal Aerodrome Forecast
Issued by NWS

Home | Current Version | Previous Version | Graphics & Text | Print | Product List | Glossary Off
Versions: 1 2 3 4 5 6 7 8 9 10 11 12 13 14 15 16 17 18 19 20 21 22

845
FTUS43 KLSX 162340
TAFSUS
TAF
KSUS 162340Z 1700/1724 15007KT 3SM -SHRA BR VCTS OVC005CB
     FM170200 18007KT 3SM BR VCSH OVC008
     FM170500 23007KT 4SM BR OVC008
     FM170800 26007KT 6SM BR OVC010
     FM172100 27009KT P6SM OVC015=

USA.gov is the U.S. government's official web portal to all federal, state and local government web resources and services.